createdAt,value
2022-10-05T00:00:20.753Z,90.10
2022-10-05T00:02:49.299Z,90.10
2022-10-05T00:05:31.336Z,90.10
2022-10-05T00:08:11.906Z,90.10
2022-10-05T00:10:41.513Z,90.30
2022-10-05T00:13:17.518Z,90.00
2022-10-05T00:15:44.481Z,90.00
2022-10-05T00:18:19.837Z,90.00
2022-10-05T00:20:48.584Z,90.00
2022-10-05T00:23:21.722Z,90.00
2022-10-05T00:25:48.664Z,90.00
2022-10-05T00:28:26.519Z,90.00
2022-10-05T00:31:00.165Z,90.00
2022-10-05T00:33:27.937Z,90.00
2022-10-05T00:35:55.667Z,90.00
2022-10-05T00:38:22.958Z,90.10
2022-10-05T00:40:52.721Z,90.10
2022-10-05T00:43:30.978Z,90.10
2022-10-05T00:46:11.873Z,90.00
2022-10-05T00:49:00.291Z,90.10
2022-10-05T00:51:43.776Z,90.10
2022-10-05T00:54:19.549Z,90.10
2022-10-05T00:57:14.525Z,90.10
2022-10-05T00:59:50.082Z,90.10
2022-10-05T01:02:36.534Z,90.00
2022-10-05T01:05:19.565Z,89.50
2022-10-05T01:07:54.908Z,88.60
2022-10-05T01:10:32.569Z,88.40
2022-10-05T01:13:49.638Z,88.40
2022-10-05T01:16:45.258Z,88.60
2022-10-05T01:19:36.394Z,88.90
2022-10-05T01:22:27.391Z,89.00
2022-10-05T01:24:54.067Z,89.10
2022-10-05T01:27:45.265Z,89.20
2022-10-05T01:30:21.354Z,89.70
2022-10-05T01:33:25.454Z,90.00
2022-10-05T01:36:09.823Z,90.10
2022-10-05T01:39:05.348Z,90.30
2022-10-05T01:41:47.944Z,90.30
2022-10-05T01:44:30.057Z,90.30
2022-10-05T01:47:25.764Z,90.40
2022-10-05T01:50:04.557Z,90.50
2022-10-05T01:52:43.467Z,90.40
2022-10-05T01:55:18.568Z,90.40
2022-10-05T01:58:07.253Z,90.50
2022-10-05T02:00:46.810Z,90.70
2022-10-05T02:03:24.575Z,90.90
2022-10-05T02:06:06.692Z,91.20
2022-10-05T02:08:50.976Z,91.40
2022-10-05T02:11:18.996Z,91.70
2022-10-05T02:14:18.648Z,91.90
2022-10-05T02:16:50.915Z,92.00
2022-10-05T02:19:21.609Z,92.20
2022-10-05T02:22:10.496Z,92.30
2022-10-05T02:24:45.890Z,92.30
2022-10-05T02:27:17.578Z,92.40
2022-10-05T02:29:48.798Z,92.70
2022-10-05T02:32:28.487Z,92.30
2022-10-05T02:35:02.225Z,92.20
2022-10-05T02:37:35.576Z,92.40
2022-10-05T02:40:15.074Z,92.50
2022-10-05T02:43:04.833Z,92.50
2022-10-05T02:46:20.075Z,92.40
2022-10-05T02:49:05.556Z,92.30
2022-10-05T02:52:03.209Z,92.10
2022-10-05T02:54:42.813Z,92.00
2022-10-05T02:57:40.028Z,91.80
2022-10-05T03:00:21.276Z,91.60
2022-10-05T03:03:03.961Z,91.50
2022-10-05T03:06:04.647Z,91.40
2022-10-05T03:08:34.816Z,91.20
2022-10-05T03:11:40.998Z,91.10
2022-10-05T03:14:23.518Z,90.90
2022-10-05T03:17:20.718Z,90.70
2022-10-05T03:20:16.994Z,90.50
2022-10-05T03:23:04.433Z,90.30
2022-10-05T03:25:43.129Z,90.30
2022-10-05T03:28:31.773Z,90.20
2022-10-05T03:31:43.235Z,90.10
2022-10-05T03:34:44.689Z,89.70
2022-10-05T03:37:22.906Z,89.00
2022-10-05T03:39:57.687Z,88.70
2022-10-05T03:42:49.670Z,88.70
2022-10-05T03:45:26.154Z,88.50
2022-10-05T03:48:08.018Z,88.70
2022-10-05T03:50:40.827Z,88.80
2022-10-05T03:53:25.460Z,88.90
2022-10-05T03:56:15.677Z,89.10
2022-10-05T03:58:50.725Z,89.10
2022-10-05T04:01:25.424Z,88.40
2022-10-05T04:03:59.913Z,88.20
2022-10-05T04:06:35.816Z,88.10
2022-10-05T04:09:13.109Z,88.00
2022-10-05T04:11:48.888Z,87.90
2022-10-05T04:14:41.537Z,87.70
2022-10-05T04:17:18.279Z,87.70
2022-10-05T04:19:59.070Z,87.70
2022-10-05T04:22:35.216Z,87.50
2022-10-05T04:25:28.971Z,87.20
2022-10-05T04:28:22.442Z,86.60
2022-10-05T04:30:53.050Z,85.90
2022-10-05T04:33:21.925Z,85.50
2022-10-05T04:36:17.619Z,85.10
2022-10-05T04:38:50.084Z,85.00
2022-10-05T04:41:38.091Z,84.80
2022-10-05T04:44:26.018Z,84.90
2022-10-05T04:47:23.659Z,84.80
2022-10-05T04:50:11.501Z,84.50
2022-10-05T04:53:16.721Z,84.50
2022-10-05T04:56:06.825Z,84.30
2022-10-05T04:58:42.738Z,83.80
2022-10-05T05:01:31.133Z,83.70
2022-10-05T05:04:33.289Z,83.10
2022-10-05T05:07:12.015Z,82.60
2022-10-05T05:09:50.714Z,82.20
2022-10-05T05:12:49.561Z,82.00
2022-10-05T05:15:37.948Z,81.20
2022-10-05T05:18:25.138Z,80.90
2022-10-05T05:21:01.464Z,80.80
2022-10-05T05:23:41.006Z,80.70
2022-10-05T05:26:25.683Z,80.80
2022-10-05T05:28:55.713Z,80.90
2022-10-05T05:31:35.006Z,80.60
2022-10-05T05:34:30.790Z,80.40
2022-10-05T05:37:28.102Z,80.60
2022-10-05T05:40:06.914Z,80.50
2022-10-05T05:42:59.147Z,80.60
2022-10-05T05:45:47.006Z,80.60
2022-10-05T05:48:31.813Z,80.00
2022-10-05T05:51:09.411Z,79.80
2022-10-05T05:53:46.640Z,79.90
2022-10-05T05:56:32.532Z,79.80
2022-10-05T05:59:26.066Z,79.80
2022-10-05T06:02:10.561Z,80.00
2022-10-05T06:04:52.507Z,80.80
2022-10-05T06:07:30.208Z,80.40
2022-10-05T06:10:15.361Z,80.70
2022-10-05T06:12:46.812Z,80.80
2022-10-05T06:15:35.822Z,80.90
2022-10-05T06:18:09.715Z,80.70
2022-10-05T06:20:39.228Z,81.10
2022-10-05T06:23:43.694Z,81.20
2022-10-05T06:26:39.851Z,81.50
2022-10-05T06:29:16.876Z,81.50
2022-10-05T06:32:19.445Z,81.50
2022-10-05T06:35:04.419Z,81.60
2022-10-05T06:38:04.649Z,81.70
2022-10-05T06:41:10.754Z,81.50
2022-10-05T06:43:52.587Z,81.40
2022-10-05T06:46:51.142Z,81.20
2022-10-05T06:49:40.003Z,81.00
2022-10-05T06:52:15.609Z,80.80
2022-10-05T06:54:42.910Z,80.70
2022-10-05T06:57:49.081Z,80.70
2022-10-05T07:00:38.368Z,80.80
2022-10-05T07:03:31.009Z,80.30
2022-10-05T07:06:14.308Z,79.90
2022-10-05T07:09:03.711Z,79.10
2022-10-05T07:11:36.466Z,78.80
2022-10-05T07:14:15.369Z,78.70
2022-10-05T07:16:51.020Z,78.30
2022-10-05T07:19:56.079Z,78.00
2022-10-05T07:22:38.036Z,77.30
2022-10-05T07:25:27.771Z,77.20
2022-10-05T07:28:08.913Z,76.60
2022-10-05T07:31:00.534Z,76.80
2022-10-05T07:33:53.463Z,76.40
2022-10-05T07:36:59.046Z,76.30
2022-10-05T07:39:59.554Z,75.90
2022-10-05T07:42:56.513Z,75.80
2022-10-05T07:45:31.990Z,75.40
2022-10-05T07:48:06.874Z,75.30
2022-10-05T07:50:59.881Z,75.40
2022-10-05T07:53:40.402Z,75.70
2022-10-05T07:56:21.933Z,76.00
2022-10-05T07:59:01.828Z,74.60
2022-10-05T08:01:35.382Z,74.30
2022-10-05T08:04:27.100Z,73.60
2022-10-05T08:07:04.821Z,73.60
2022-10-05T08:09:49.975Z,73.60
2022-10-05T08:12:31.677Z,73.40
2022-10-05T08:15:14.445Z,73.10
2022-10-05T08:17:56.139Z,73.20
2022-10-05T08:20:30.046Z,72.70
2022-10-05T08:23:08.686Z,72.90
2022-10-05T08:26:01.344Z,72.60
2022-10-05T08:28:39.316Z,72.00
2022-10-05T08:31:26.869Z,71.50
2022-10-05T08:34:20.239Z,71.10
2022-10-05T08:37:05.716Z,70.80
2022-10-05T08:39:42.618Z,70.80
2022-10-05T08:42:15.420Z,70.50
2022-10-05T08:44:58.958Z,70.20
2022-10-05T08:48:01.305Z,69.60
2022-10-05T08:50:37.091Z,69.10
2022-10-05T08:53:30.093Z,69.10
2022-10-05T08:56:19.091Z,69.40
2022-10-05T08:59:05.513Z,68.20
2022-10-05T09:01:38.337Z,66.20
2022-10-05T09:04:22.222Z,65.40
2022-10-05T09:07:08.628Z,65.00
2022-10-05T09:10:04.626Z,64.70
2022-10-05T09:13:05.977Z,64.50
2022-10-05T09:16:00.659Z,64.70
2022-10-05T09:18:42.041Z,63.80
2022-10-05T09:21:21.074Z,63.50
2022-10-05T09:24:13.656Z,62.80
2022-10-05T09:27:03.970Z,62.90
2022-10-05T09:30:09.073Z,61.50
2022-10-05T09:32:54.910Z,61.40
2022-10-05T09:35:43.529Z,61.50
2022-10-05T09:38:20.891Z,60.60
2022-10-05T09:41:09.303Z,59.90
2022-10-05T09:43:54.940Z,59.30
2022-10-05T09:46:48.324Z,58.80
2022-10-05T09:49:34.592Z,58.30
2022-10-05T09:52:28.983Z,57.30
2022-10-05T09:55:01.672Z,57.40
2022-10-05T09:57:28.363Z,57.10
2022-10-05T10:00:21.642Z,57.10
2022-10-05T10:03:21.426Z,56.70
2022-10-05T10:06:17.365Z,56.70
2022-10-05T10:09:13.348Z,56.90
2022-10-05T10:12:14.166Z,57.20
2022-10-05T10:15:14.717Z,56.90
2022-10-05T10:18:03.205Z,57.10
2022-10-05T10:20:58.819Z,57.30
2022-10-05T10:23:37.926Z,57.10
2022-10-05T10:26:16.739Z,57.00
2022-10-05T10:29:11.744Z,57.40
2022-10-05T10:31:58.112Z,58.00
2022-10-05T10:35:00.216Z,58.70
2022-10-05T10:37:41.745Z,59.20
2022-10-05T10:40:40.442Z,59.70
2022-10-05T10:43:26.614Z,59.80
2022-10-05T10:46:09.933Z,60.10
2022-10-05T10:49:04.011Z,60.40
2022-10-05T10:51:42.309Z,60.50
2022-10-05T10:54:17.939Z,60.80
2022-10-05T10:57:07.280Z,61.00
2022-10-05T10:59:47.518Z,61.30
2022-10-05T11:02:29.451Z,61.00
2022-10-05T11:05:21.394Z,61.00
2022-10-05T11:07:58.923Z,60.70
2022-10-05T11:11:05.412Z,60.00
2022-10-05T11:13:48.301Z,59.00
2022-10-05T11:16:36.652Z,58.60
2022-10-05T11:19:21.700Z,58.70
2022-10-05T11:22:30.089Z,60.00
2022-10-05T11:25:28.877Z,59.80
2022-10-05T11:28:23.708Z,59.30
2022-10-05T11:31:15.243Z,58.70
2022-10-05T11:34:06.971Z,59.10
2022-10-05T11:37:01.978Z,59.10
2022-10-05T11:39:40.745Z,59.10
2022-10-05T11:42:28.575Z,58.50
2022-10-05T11:45:19.346Z,58.40
2022-10-05T11:47:52.898Z,58.90
2022-10-05T11:50:50.907Z,58.20
2022-10-05T11:53:17.562Z,57.70
2022-10-05T11:56:10.728Z,58.30
2022-10-05T11:58:50.200Z,58.50
2022-10-05T12:01:37.785Z,58.60
2022-10-05T12:04:22.982Z,58.50
2022-10-05T12:06:49.940Z,58.30
2022-10-05T12:10:17.276Z,57.80
2022-10-05T12:13:22.053Z,57.50
2022-10-05T12:16:05.904Z,56.90
2022-10-05T12:18:32.880Z,56.20
2022-10-05T12:21:05.820Z,56.00
2022-10-05T12:23:47.210Z,55.10
2022-10-05T12:26:23.140Z,55.00
2022-10-05T12:29:32.844Z,55.30
2022-10-05T12:32:22.500Z,54.90
2022-10-05T12:35:36.227Z,54.20
2022-10-05T12:38:16.715Z,54.40
2022-10-05T12:41:09.700Z,54.50
2022-10-05T12:43:54.953Z,54.90
2022-10-05T12:46:49.554Z,54.40
2022-10-05T12:49:43.631Z,54.10
2022-10-05T12:52:45.789Z,54.00
2022-10-05T12:56:00.245Z,54.10
2022-10-05T12:58:35.994Z,54.10
2022-10-05T13:01:27.122Z,53.90
2022-10-05T13:04:25.928Z,53.70
2022-10-05T13:07:01.572Z,54.10
2022-10-05T13:09:48.187Z,54.50
2022-10-05T13:12:36.112Z,54.70
2022-10-05T13:15:29.036Z,55.00
2022-10-05T13:18:45.378Z,54.90
2022-10-05T13:21:34.842Z,54.60
2022-10-05T13:24:06.947Z,54.90
2022-10-05T13:26:39.478Z,54.10
2022-10-05T13:29:28.950Z,53.20
2022-10-05T13:32:16.494Z,53.10
2022-10-05T13:35:34.414Z,53.70
2022-10-05T13:38:24.177Z,53.80
2022-10-05T13:41:28.006Z,54.70
2022-10-05T13:44:30.544Z,55.00
2022-10-05T13:47:00.761Z,55.10
2022-10-05T13:49:50.414Z,55.30
2022-10-05T13:52:53.268Z,55.00
2022-10-05T13:55:44.600Z,54.40
2022-10-05T13:58:50.835Z,53.40
2022-10-05T14:01:28.430Z,53.00
2022-10-05T14:04:05.747Z,52.60
2022-10-05T14:06:36.013Z,52.50
2022-10-05T14:09:03.388Z,52.90
2022-10-05T14:11:35.178Z,53.20
2022-10-05T14:14:24.800Z,53.40
2022-10-05T14:16:54.831Z,53.20
2022-10-05T14:19:27.928Z,52.80
2022-10-05T14:22:11.396Z,52.70
2022-10-05T14:24:50.577Z,53.10
2022-10-05T14:27:27.014Z,53.30
2022-10-05T14:30:03.070Z,53.00
2022-10-05T14:32:33.236Z,53.40
2022-10-05T14:35:12.674Z,52.90
2022-10-05T14:38:00.437Z,53.10
2022-10-05T14:40:32.210Z,52.80
2022-10-05T14:43:16.901Z,52.70
2022-10-05T14:46:02.590Z,52.40
2022-10-05T14:48:41.144Z,51.80
2022-10-05T14:51:24.282Z,52.20
2022-10-05T14:53:59.943Z,52.50
2022-10-05T14:56:44.846Z,52.40
2022-10-05T14:59:11.566Z,52.30
2022-10-05T15:01:52.127Z,52.10
2022-10-05T15:04:23.500Z,52.40
2022-10-05T15:07:11.006Z,52.30
2022-10-05T15:09:45.977Z,52.00
2022-10-05T15:12:19.009Z,52.30
2022-10-05T15:14:47.769Z,52.30
2022-10-05T15:17:20.216Z,52.70
2022-10-05T15:20:18.421Z,52.90
2022-10-05T15:22:50.056Z,53.00
2022-10-05T15:25:53.778Z,52.90
2022-10-05T15:28:37.446Z,53.00
2022-10-05T15:31:19.104Z,53.30
2022-10-05T15:33:59.918Z,53.50
2022-10-05T15:36:39.233Z,53.60
2022-10-05T15:39:20.977Z,53.40
2022-10-05T15:41:58.319Z,53.30
2022-10-05T15:44:47.168Z,53.50
2022-10-05T15:47:28.002Z,53.90
2022-10-05T15:50:07.180Z,54.00
2022-10-05T15:52:46.316Z,53.90
2022-10-05T15:55:28.221Z,54.20
2022-10-05T15:58:20.512Z,54.30
2022-10-05T16:01:04.070Z,54.50
2022-10-05T16:03:53.694Z,55.00
2022-10-05T16:07:03.314Z,55.40
2022-10-05T16:09:52.480Z,55.90
2022-10-05T16:13:07.964Z,56.30
2022-10-05T16:15:42.770Z,56.80
2022-10-05T16:18:35.952Z,57.10
2022-10-05T16:21:14.038Z,57.40
2022-10-05T16:24:06.253Z,57.80
2022-10-05T16:26:51.446Z,58.40
2022-10-05T16:29:29.935Z,58.60
2022-10-05T16:32:19.082Z,59.10
2022-10-05T16:35:11.437Z,59.60
2022-10-05T16:38:05.758Z,60.00
2022-10-05T16:40:47.267Z,61.10
2022-10-05T16:43:23.030Z,60.70
2022-10-05T16:45:58.653Z,60.90
2022-10-05T16:48:31.067Z,61.20
2022-10-05T16:50:57.812Z,61.50
2022-10-05T16:53:36.838Z,62.00
2022-10-05T16:56:12.631Z,62.50
2022-10-05T16:58:55.144Z,62.70
2022-10-05T17:01:43.773Z,63.20
2022-10-05T17:04:23.648Z,63.60
2022-10-05T17:07:19.271Z,64.00
2022-10-05T17:10:32.025Z,64.30
2022-10-05T17:13:11.090Z,64.90
2022-10-05T17:16:00.774Z,65.30
2022-10-05T17:18:49.381Z,65.80
2022-10-05T17:21:37.381Z,66.30
2022-10-05T17:24:23.486Z,66.60
2022-10-05T17:27:18.947Z,66.80
2022-10-05T17:29:54.753Z,67.00
2022-10-05T17:32:33.973Z,67.10
2022-10-05T17:35:00.807Z,67.20
2022-10-05T17:37:27.515Z,68.20
2022-10-05T17:39:56.485Z,67.60
2022-10-05T17:42:26.275Z,67.70
2022-10-05T17:45:13.848Z,68.00
2022-10-05T17:48:01.956Z,68.20
2022-10-05T17:51:03.667Z,68.20
2022-10-05T17:54:02.681Z,68.30
2022-10-05T17:56:48.060Z,68.30
2022-10-05T17:59:51.903Z,68.50
2022-10-05T18:02:35.257Z,68.70
2022-10-05T18:05:12.691Z,68.90
2022-10-05T18:07:40.722Z,69.10
2022-10-05T18:10:13.080Z,69.20
2022-10-05T18:12:45.858Z,69.50
2022-10-05T18:15:24.557Z,70.20
2022-10-05T18:17:54.820Z,69.60
2022-10-05T18:20:25.490Z,69.80
2022-10-05T18:23:07.288Z,70.00
2022-10-05T18:25:44.032Z,70.20
2022-10-05T18:28:48.626Z,70.50
2022-10-05T18:31:26.665Z,70.70
2022-10-05T18:34:09.954Z,71.10
2022-10-05T18:36:44.499Z,71.30
2022-10-05T18:39:38.940Z,71.80
2022-10-05T18:42:14.447Z,72.10
2022-10-05T18:44:49.940Z,72.60
2022-10-05T18:47:32.581Z,73.80
2022-10-05T18:50:11.951Z,78.10
2022-10-05T18:52:56.299Z,81.00
2022-10-05T18:55:53.397Z,86.00
2022-10-05T18:58:30.759Z,90.70
2022-10-05T19:00:58.389Z,93.00
2022-10-05T19:04:04.643Z,94.30
2022-10-05T19:06:42.129Z,95.90
2022-10-05T19:09:37.430Z,98.00
2022-10-05T19:12:23.642Z,99.40
2022-10-05T19:14:59.404Z,99.90
2022-10-05T19:17:55.316Z,99.90
2022-10-05T19:20:44.895Z,99.90
2022-10-05T19:23:42.369Z,99.90
2022-10-05T19:26:26.220Z,99.90
2022-10-05T19:28:59.690Z,99.90
2022-10-05T19:31:43.723Z,99.90
2022-10-05T19:34:29.898Z,99.90
2022-10-05T19:37:20.806Z,99.90
2022-10-05T19:40:16.537Z,99.90
2022-10-05T19:42:46.210Z,99.90
2022-10-05T19:45:24.412Z,99.90
2022-10-05T19:48:09.924Z,99.90
2022-10-05T19:50:40.408Z,99.90
2022-10-05T19:53:17.132Z,99.90
2022-10-05T19:55:46.988Z,99.90
2022-10-05T19:58:22.449Z,99.90
2022-10-05T20:01:11.432Z,99.90
2022-10-05T20:03:38.657Z,99.90
2022-10-05T20:06:10.810Z,99.90
2022-10-05T20:08:49.092Z,99.90
2022-10-05T20:11:27.293Z,99.90
2022-10-05T20:13:54.953Z,99.90
2022-10-05T20:16:47.653Z,99.90
2022-10-05T20:19:35.148Z,99.90
2022-10-05T20:22:30.136Z,99.90
2022-10-05T20:24:58.773Z,99.90
2022-10-05T20:27:41.251Z,99.90
2022-10-05T20:30:13.266Z,99.90
2022-10-05T20:32:39.998Z,99.90
2022-10-05T20:35:07.107Z,99.90
2022-10-05T20:37:33.795Z,99.90
2022-10-05T20:40:00.470Z,99.90
2022-10-05T20:42:27.158Z,99.90
2022-10-05T20:44:56.844Z,99.90
2022-10-05T20:47:24.510Z,99.90
2022-10-05T20:49:53.337Z,99.90
2022-10-05T20:52:20.269Z,99.90
2022-10-05T20:54:47.109Z,99.90
2022-10-05T20:57:14.447Z,99.90
2022-10-05T20:59:41.116Z,99.90
2022-10-05T21:02:07.777Z,99.90
2022-10-05T21:04:41.718Z,99.90
2022-10-05T21:07:09.509Z,99.90
2022-10-05T21:09:38.396Z,99.90
2022-10-05T21:12:05.424Z,99.90
2022-10-05T21:14:34.542Z,99.90
2022-10-05T21:17:02.274Z,99.90
2022-10-05T21:19:29.627Z,99.90
2022-10-05T21:21:59.349Z,99.90
2022-10-05T21:24:26.351Z,99.90
2022-10-05T21:26:56.756Z,99.90
2022-10-05T21:29:23.496Z,99.90
2022-10-05T21:31:50.298Z,99.90
2022-10-05T21:34:17.324Z,99.90
2022-10-05T21:36:44.037Z,99.90
2022-10-05T21:39:10.747Z,99.90
2022-10-05T21:41:37.469Z,99.90
2022-10-05T21:44:06.746Z,99.90
2022-10-05T21:46:36.432Z,99.90
2022-10-05T21:49:03.485Z,99.90
2022-10-05T21:51:30.219Z,99.90
2022-10-05T21:54:03.043Z,99.90
2022-10-05T21:56:34.853Z,99.90
2022-10-05T21:59:03.378Z,99.90
2022-10-05T22:01:30.221Z,99.90
2022-10-05T22:03:56.971Z,99.90
2022-10-05T22:06:24.997Z,99.90
2022-10-05T22:08:51.817Z,99.90
2022-10-05T22:11:18.735Z,99.90
2022-10-05T22:13:51.737Z,99.90
2022-10-05T22:16:21.756Z,99.90
2022-10-05T22:18:49.335Z,99.90
2022-10-05T22:21:16.914Z,99.90
2022-10-05T22:23:45.625Z,99.90
2022-10-05T22:26:14.385Z,99.90
2022-10-05T22:28:42.590Z,99.90
2022-10-05T22:31:10.261Z,99.90
2022-10-05T22:33:37.454Z,99.90
2022-10-05T22:36:05.536Z,99.90
2022-10-05T22:38:32.638Z,99.90
2022-10-05T22:40:59.377Z,99.90
2022-10-05T22:43:27.065Z,99.90
2022-10-05T22:45:54.612Z,99.90
2022-10-05T22:48:21.626Z,99.90
2022-10-05T22:50:48.871Z,99.90
2022-10-05T22:53:17.349Z,99.90
2022-10-05T22:55:44.042Z,99.90
2022-10-05T22:58:10.828Z,99.70
2022-10-05T23:03:24.364Z,98.80
2022-10-05T23:05:57.888Z,98.30
2022-10-05T23:08:24.896Z,97.80
2022-10-05T23:10:52.596Z,97.00
2022-10-05T23:13:19.621Z,96.50
2022-10-05T23:15:47.473Z,96.30
2022-10-05T23:18:16.618Z,96.30
2022-10-05T23:20:43.587Z,96.10
2022-10-05T23:23:10.692Z,95.60
2022-10-05T23:25:37.445Z,95.10
2022-10-05T23:28:04.141Z,95.00
2022-10-05T23:30:31.130Z,95.10
2022-10-05T23:32:58.082Z,94.50
2022-10-05T23:35:24.775Z,94.00
2022-10-05T23:37:51.525Z,93.60
2022-10-05T23:40:18.221Z,93.40
2022-10-05T23:42:44.929Z,93.40
2022-10-05T23:45:12.574Z,93.30
2022-10-05T23:47:40.224Z,93.50
2022-10-05T23:50:08.516Z,93.60
2022-10-05T23:52:36.078Z,93.90
2022-10-05T23:55:04.712Z,93.50
2022-10-05T23:57:31.805Z,93.10
2022-10-05T23:59:58.687Z,92.10
